Time;durP1;ratioP1;P1;durP2;ratioP2;P2;SDS_P1;SDS_P2;PMS_P1;PMS_P2;Temp;Humidity;BMP_temperature;BMP_pressure;BME280_temperature;BME280_humidity;BME280_pressure;Samples;Min_cycle;Max_cycle;Signal;HPM_P1;HPM_P2
2023/11/19 00:00:04;;;;;;;1.92;1.20;;;;;;;6.66;67.18;99703.56;6150283;23;20009;-79
2023/11/19 00:02:29;;;;;;;2.17;1.20;;;;;;;6.80;66.45;99692.81;6123522;23;20469;-79
2023/11/19 00:04:55;;;;;;;1.48;0.90;;;;;;;6.74;65.68;99701.56;6124051;23;20013;-80
2023/11/19 00:07:20;;;;;;;1.65;0.90;;;;;;;6.68;66.00;99696.25;6149730;23;20089;-79
2023/11/19 00:09:46;;;;;;;1.30;1.08;;;;;;;6.59;66.82;99703.56;6150152;23;20032;-81
2023/11/19 00:12:11;;;;;;;1.73;1.00;;;;;;;6.73;66.65;99725.63;6123429;23;20087;-80
2023/11/19 00:14:37;;;;;;;2.22;1.10;;;;;;;6.75;66.53;99734.97;6150069;23;20044;-80
2023/11/19 00:17:03;;;;;;;2.17;1.27;;;;;;;6.72;66.85;99750.47;6149820;23;20001;-79
2023/11/19 00:19:29;;;;;;;3.78;1.08;;;;;;;6.75;66.51;99734.19;6150087;23;20092;-80
2023/11/19 00:21:54;;;;;;;1.27;0.95;;;;;;;6.59;67.37;99740.66;6149623;23;20009;-80
2023/11/19 00:24:20;;;;;;;1.23;0.98;;;;;;;6.59;67.74;99730.88;6123675;23;20096;-79
2023/11/19 00:26:46;;;;;;;2.03;1.00;;;;;;;6.48;67.78;99706.78;6123143;23;20101;-79
2023/11/19 00:29:13;;;;;;;2.47;1.20;;;;;;;6.72;67.69;99747.81;6123383;23;20021;-80
2023/11/19 00:31:39;;;;;;;2.25;1.25;;;;;;;6.54;67.87;99733.31;6123654;23;20387;-80
2023/11/19 00:34:06;;;;;;;1.98;1.13;;;;;;;6.57;67.88;99722.31;6149265;23;20439;-79
2023/11/19 00:36:31;;;;;;;2.58;1.35;;;;;;;6.80;67.15;99772.31;6123199;23;20016;-80
2023/11/19 00:38:57;;;;;;;2.28;1.50;;;;;;;6.70;66.92;99748.03;6123735;23;20406;-82
2023/11/19 00:41:22;;;;;;;2.22;1.20;;;;;;;6.80;66.81;99748.47;6123778;23;20010;-80
2023/11/19 00:43:49;;;;;;;1.52;0.98;;;;;;;6.83;67.45;99760.47;6123761;23;20012;-80
2023/11/19 00:46:14;;;;;;;1.80;1.10;;;;;;;6.87;66.50;99737.06;6123561;23;20010;-80
2023/11/19 00:48:40;;;;;;;3.05;1.10;;;;;;;6.73;65.88;99739.66;6149713;23;20088;-80
2023/11/19 00:51:06;;;;;;;3.17;1.15;;;;;;;6.83;65.93;99748.03;6123510;23;20032;-81
2023/11/19 00:53:32;;;;;;;1.85;0.90;;;;;;;6.88;65.24;99744.78;6123835;23;20009;-80
2023/11/19 00:55:57;;;;;;;2.45;0.90;;;;;;;6.92;65.26;99750.50;6123770;23;20009;-80
2023/11/19 00:58:23;;;;;;;1.95;1.33;;;;;;;6.81;65.37;99734.19;6149853;23;20010;-80
2023/11/19 01:00:49;;;;;;;2.63;1.17;;;;;;;6.76;64.46;99718.09;6123756;23;20012;-80
2023/11/19 01:03:15;;;;;;;1.42;0.77;;;;;;;6.79;64.61;99730.09;6149720;23;20005;-83
2023/11/19 01:05:41;;;;;;;2.15;0.88;;;;;;;6.95;64.67;99763.38;6125552;23;20013;-81
2023/11/19 01:08:07;;;;;;;1.00;0.90;;;;;;;6.74;65.23;99748.44;6151557;23;20005;-81
2023/11/19 01:10:32;;;;;;;1.42;1.00;;;;;;;6.80;65.08;99759.06;6125655;23;20005;-82
2023/11/19 01:12:58;;;;;;;3.13;1.33;;;;;;;6.64;66.01;99754.16;6151431;23;20010;-83
2023/11/19 01:15:23;;;;;;;2.33;1.40;;;;;;;6.67;66.56;99752.91;6151872;23;20060;-83
2023/11/19 01:17:49;;;;;;;3.22;1.42;;;;;;;6.74;66.06;99764.34;6151104;23;20009;-80
2023/11/19 01:20:14;;;;;;;1.75;1.25;;;;;;;6.77;66.12;99748.03;6150458;23;20013;-80
2023/11/19 01:22:40;;;;;;;1.42;0.90;;;;;;;6.51;66.62;99732.91;6151202;23;20019;-79
2023/11/19 01:25:06;;;;;;;1.77;1.10;;;;;;;6.71;66.55;99765.56;6125516;23;20336;-80
2023/11/19 01:27:34;;;;;;;2.38;1.30;;;;;;;6.74;66.18;99769.63;6125462;23;20009;-78
2023/11/19 01:30:03;;;;;;;2.83;1.05;;;;;;;6.80;65.65;99764.38;6151286;23;20005;-78
2023/11/19 01:32:29;;;;;;;3.30;1.40;;;;;;;6.60;67.29;99766.16;6125458;23;20088;-78
2023/11/19 01:34:54;;;;;;;3.90;1.55;;;;;;;6.54;66.14;99743.91;6150985;23;20014;-78
2023/11/19 01:37:19;;;;;;;1.13;0.82;;;;;;;6.71;66.45;99770.84;6125349;23;20055;-79
2023/11/19 01:39:45;;;;;;;1.83;1.20;;;;;;;6.68;66.34;99755.38;6125007;23;20032;-80
2023/11/19 01:42:12;;;;;;;2.35;0.95;;;;;;;6.55;66.42;99750.84;6151679;23;20010;-78
2023/11/19 01:44:37;;;;;;;1.42;0.88;;;;;;;6.69;66.06;99766.78;6152043;23;20097;-79
2023/11/19 01:47:03;;;;;;;2.85;1.23;;;;;;;6.47;65.83;99736.97;6151141;23;20010;-80
2023/11/19 01:49:31;;;;;;;2.03;1.42;;;;;;;6.67;67.45;99774.91;6125464;23;20452;-79
2023/11/19 01:51:57;;;;;;;3.05;1.33;;;;;;;6.59;67.15;99756.56;6125796;23;20487;-79
2023/11/19 01:54:23;;;;;;;2.10;1.13;;;;;;;6.54;66.58;99737.78;6134634;23;20015;-79
2023/11/19 01:56:49;;;;;;;2.75;1.10;;;;;;;6.84;66.46;99770.91;6171056;23;20005;-82
2023/11/19 01:59:15;;;;;;;2.20;1.20;;;;;;;6.38;67.48;99723.91;6143239;23;20005;-80
2023/11/19 02:01:41;;;;;;;3.35;1.67;;;;;;;6.70;67.95;99763.09;6170711;23;20041;-79
2023/11/19 02:04:08;;;;;;;2.83;1.25;;;;;;;6.66;67.46;99730.91;6170282;23;20443;-79
2023/11/19 02:06:36;;;;;;;1.65;1.08;;;;;;;6.42;67.18;99714.53;6170063;23;20005;-82
2023/11/19 02:09:07;;;;;;;;;;;;;;;6.72;67.28;99751.31;6165614;23;20061;-78
2023/11/19 02:11:33;;;;;;;2.42;1.10;;;;;;;6.63;67.37;99726.81;6157930;23;19904;-78
2023/11/19 02:13:59;;;;;;;1.77;1.10;;;;;;;6.48;67.33;99702.34;6131496;23;20005;-80
2023/11/19 02:16:25;;;;;;;1.60;1.00;;;;;;;6.55;67.03;99715.59;6157293;23;20009;-79
2023/11/19 02:18:50;;;;;;;1.95;1.15;;;;;;;6.47;68.08;99721.88;6158090;23;20343;-79
2023/11/19 02:21:17;;;;;;;1.40;1.10;;;;;;;6.37;67.52;99702.91;6157054;23;20328;-80
2023/11/19 02:23:42;;;;;;;1.95;1.02;;;;;;;6.39;67.33;99714.94;6130505;23;20419;-79
2023/11/19 02:26:23;;;;;;;1.63;1.08;;;;;;;6.57;66.85;99737.41;6155386;23;20001;-80
2023/11/19 02:28:48;;;;;;;1.83;1.20;;;;;;;6.48;68.00;99733.28;6127581;23;20036;-80
2023/11/19 02:31:14;;;;;;;1.35;0.90;;;;;;;6.46;66.83;99727.38;6152508;23;20758;-80
2023/11/19 02:33:40;;;;;;;1.73;1.08;;;;;;;6.41;67.93;99722.69;6152703;23;20018;-79
2023/11/19 02:36:06;;;;;;;2.33;1.20;;;;;;;6.38;67.43;99723.91;6152182;23;20344;-79
2023/11/19 02:38:33;;;;;;;1.60;1.10;;;;;;;6.39;66.74;99720.22;6152078;23;20466;-78
2023/11/19 02:40:58;;;;;;;1.85;1.00;;;;;;;6.49;67.06;99741.03;6151388;23;20016;-79
2023/11/19 02:43:24;;;;;;;2.88;1.13;;;;;;;6.44;66.84;99757.53;6125741;23;20002;-79
2023/11/19 02:45:50;;;;;;;1.58;1.10;;;;;;;6.44;67.02;99744.28;6151228;23;20009;-78
2023/11/19 02:48:16;;;;;;;1.60;1.05;;;;;;;6.29;68.12;99725.09;6151518;23;20450;-79
2023/11/19 02:50:44;;;;;;;4.53;1.38;;;;;;;6.36;67.18;99720.63;6150954;23;20033;-78
2023/11/19 02:53:10;;;;;;;;;;;;;;;6.41;68.46;99742.03;6151799;23;20016;-80
2023/11/19 02:55:38;;;;;;;1.85;1.20;;;;;;;6.24;67.88;99715.09;6150527;23;19915;-81
2023/11/19 02:58:19;;;;;;;2.28;1.10;;;;;;;6.40;67.03;99735.13;6150564;23;20006;-80
2023/11/19 03:00:57;;;;;;;1.98;1.30;;;;;;;6.47;66.32;99723.72;6150492;23;20104;-78
2023/11/19 03:03:30;;;;;;;1.73;1.27;;;;;;;6.40;66.60;99727.16;6124914;23;20012;-79
2023/11/19 03:05:57;;;;;;;1.45;1.10;;;;;;;6.41;65.15;99734.09;6151127;23;20060;-80
2023/11/19 03:08:22;;;;;;;1.90;1.20;;;;;;;6.43;64.64;99715.34;6150903;23;20064;-80
2023/11/19 03:10:48;;;;;;;1.88;1.08;;;;;;;6.48;63.94;99735.94;6124776;23;20013;-79
2023/11/19 03:13:14;;;;;;;3.45;1.05;;;;;;;6.66;63.47;99767.16;6124652;23;20037;-79
2023/11/19 03:15:41;;;;;;;1.58;0.90;;;;;;;6.72;63.44;99769.84;6124880;23;20018;-80
2023/11/19 03:18:07;;;;;;;2.10;1.27;;;;;;;6.74;62.87;99764.34;6150748;23;20002;-79
2023/11/19 03:20:32;;;;;;;0.98;0.80;;;;;;;6.48;63.02;99722.69;6125001;23;20020;-79
2023/11/19 03:22:58;;;;;;;1.33;0.90;;;;;;;6.63;63.47;99747.19;6150732;23;20005;-80
2023/11/19 03:25:36;;;;;;;2.47;1.30;;;;;;;6.60;62.72;99734.38;6150829;23;20088;-78
2023/11/19 03:28:02;;;;;;;1.77;1.17;;;;;;;6.42;63.45;99725.13;6150928;23;20458;-79
2023/11/19 03:30:28;;;;;;;1.65;0.88;;;;;;;6.50;65.29;99757.75;6124353;23;20056;-81
2023/11/19 03:32:54;;;;;;;2.55;1.42;;;;;;;6.42;67.19;99748.97;6150834;23;20427;-79
2023/11/19 03:35:20;;;;;;;2.38;1.50;;;;;;;5.98;69.45;99720.28;6124480;23;20402;-80
2023/11/19 03:37:46;;;;;;;2.83;1.67;;;;;;;6.40;69.09;99771.38;6150508;23;20420;-81
2023/11/19 03:40:12;;;;;;;2.83;1.63;;;;;;;6.08;70.16;99780.81;6124602;23;20455;-80
2023/11/19 03:42:39;;;;;;;2.95;1.50;;;;;;;6.15;70.41;99777.19;6124281;23;20021;-79
2023/11/19 03:45:08;;;;;;;3.58;1.90;;;;;;;5.95;70.34;99753.28;6150423;23;20021;-81
2023/11/19 03:47:34;;;;;;;3.40;1.77;;;;;;;6.22;70.06;99785.16;6150536;23;20056;-83
2023/11/19 03:49:59;;;;;;;3.05;1.80;;;;;;;6.18;70.00;99766.19;6149864;23;20014;-80
2023/11/19 03:52:26;;;;;;;2.85;1.92;;;;;;;6.07;70.38;99774.72;6150144;23;20076;-79
2023/11/19 03:54:53;;;;;;;3.72;2.13;;;;;;;5.94;70.65;99780.72;6124127;23;20013;-79
2023/11/19 03:57:18;;;;;;;2.72;1.85;;;;;;;6.02;71.17;99783.22;6124070;23;20085;-79
2023/11/19 03:59:44;;;;;;;3.40;2.28;;;;;;;6.17;70.55;99795.53;6123944;23;20033;-78
2023/11/19 04:02:10;;;;;;;3.60;1.92;;;;;;;5.95;70.63;99785.03;6124134;23;20013;-80
2023/11/19 04:04:35;;;;;;;4.35;2.03;;;;;;;6.04;70.36;99796.28;6150604;23;20432;-79
2023/11/19 04:07:03;;;;;;;3.90;1.90;;;;;;;5.87;71.15;99798.41;6124197;23;20001;-78
2023/11/19 04:09:29;;;;;;;3.25;2.10;;;;;;;5.94;70.57;99801.88;6124391;23;20013;-79
2023/11/19 04:11:54;;;;;;;3.47;1.90;;;;;;;5.99;69.83;99794.22;6150064;23;20421;-79
2023/11/19 04:14:19;;;;;;;3.55;2.20;;;;;;;5.93;69.92;99789.69;6124633;23;20508;-79
2023/11/19 04:16:45;;;;;;;4.13;2.20;;;;;;;6.15;69.67;99797.53;6149953;23;20009;-79
2023/11/19 04:19:11;;;;;;;3.35;1.85;;;;;;;6.05;68.99;99779.41;6150586;23;20012;-79
2023/11/19 04:21:39;;;;;;;3.88;1.80;;;;;;;5.90;69.27;99760.13;6124322;23;20013;-79
2023/11/19 04:24:05;;;;;;;3.13;2.10;;;;;;;6.02;69.92;99804.41;6150577;23;20032;-80
2023/11/19 04:26:31;;;;;;;3.25;1.88;;;;;;;6.01;68.98;99786.91;6150722;23;20450;-78
2023/11/19 04:28:56;;;;;;;2.80;1.85;;;;;;;6.13;68.92;99804.88;6150270;23;20009;-79
2023/11/19 04:31:22;;;;;;;4.60;2.00;;;;;;;6.08;68.40;99807.31;6123926;23;20005;-80
2023/11/19 04:33:47;;;;;;;3.55;2.00;;;;;;;6.09;68.62;99803.63;6150750;23;20005;-80
2023/11/19 04:36:14;;;;;;;3.90;2.30;;;;;;;6.07;69.08;99819.72;6150418;23;20008;-82
2023/11/19 04:38:39;;;;;;;3.55;2.15;;;;;;;6.07;68.82;99816.25;6150530;23;20005;-79
2023/11/19 04:41:06;;;;;;;4.28;2.25;;;;;;;6.06;68.95;99815.44;6152080;23;20010;-79
2023/11/19 04:43:32;;;;;;;4.00;2.67;;;;;;;6.12;67.62;99808.53;6152131;23;20064;-79
2023/11/19 04:45:57;;;;;;;3.35;2.20;;;;;;;6.34;67.82;99841.84;6126047;23;20005;-79
2023/11/19 04:48:23;;;;;;;3.22;1.90;;;;;;;6.07;68.56;99821.53;6152192;23;20013;-80
2023/11/19 04:50:50;;;;;;;3.53;2.13;;;;;;;6.24;68.91;99838.75;6151810;23;20325;-80
2023/11/19 04:53:16;;;;;;;4.10;2.63;;;;;;;5.96;69.10;99826.38;6151805;23;20005;-79
2023/11/19 04:55:42;;;;;;;3.95;2.40;;;;;;;5.98;70.12;99856.09;6126078;23;20447;-80
2023/11/19 04:58:08;;;;;;;4.47;2.60;;;;;;;5.97;69.36;99838.59;6126142;23;20009;-79
2023/11/19 05:00:33;;;;;;;5.35;2.67;;;;;;;6.01;69.13;99850.44;6151329;23;20005;-81
2023/11/19 05:02:59;;;;;;;5.03;2.55;;;;;;;5.80;69.95;99853.09;6126024;23;20103;-79
2023/11/19 05:05:24;;;;;;;3.78;2.47;;;;;;;5.99;69.98;99884.22;6151736;23;20005;-80
2023/11/19 05:07:50;;;;;;;4.80;2.30;;;;;;;5.79;69.02;99847.00;6125745;23;20012;-80
2023/11/19 05:10:15;;;;;;;3.10;2.20;;;;;;;5.81;69.07;99852.09;6125310;23;20037;-79
2023/11/19 05:12:41;;;;;;;3.97;2.80;;;;;;;5.95;70.07;99890.91;6152013;23;20005;-80
2023/11/19 05:15:07;;;;;;;4.70;2.40;;;;;;;6.01;69.11;99873.44;6151204;23;20005;-81
2023/11/19 05:17:32;;;;;;;4.03;2.95;;;;;;;5.90;69.65;99874.75;6152186;23;20392;-79
2023/11/19 05:19:58;;;;;;;5.32;2.67;;;;;;;5.77;70.22;99888.72;6151696;23;20009;-81
2023/11/19 05:22:23;;;;;;;4.50;2.53;;;;;;;5.71;69.23;99870.94;6125342;23;20010;-81
2023/11/19 05:24:49;;;;;;;4.07;2.60;;;;;;;5.91;68.76;99910.81;6151742;23;20011;-80
2023/11/19 05:27:14;;;;;;;4.57;2.28;;;;;;;5.69;68.82;99874.81;6151643;23;20352;-79
2023/11/19 05:29:41;;;;;;;4.35;2.33;;;;;;;5.92;68.30;99915.06;6151371;23;20009;-79
2023/11/19 05:32:07;;;;;;;4.50;2.45;;;;;;;5.72;68.36;99882.34;6151279;23;20085;-80
2023/11/19 05:34:32;;;;;;;3.30;2.08;;;;;;;5.71;68.97;99891.31;6125605;23;20032;-79
2023/11/19 05:36:58;;;;;;;3.35;2.03;;;;;;;5.83;68.59;99903.81;6151260;23;20010;-81
2023/11/19 05:39:24;;;;;;;4.28;2.03;;;;;;;5.89;68.28;99910.19;6125330;23;20016;-80
2023/11/19 05:41:49;;;;;;;3.60;2.42;;;;;;;5.85;69.06;99882.47;6151652;23;20006;-79
2023/11/19 05:44:15;;;;;;;3.88;2.28;;;;;;;5.95;68.00;99892.75;6151170;23;20137;-79
2023/11/19 05:46:42;;;;;;;4.13;2.42;;;;;;;5.94;68.79;99905.13;6125456;23;20118;-79
2023/11/19 05:49:08;;;;;;;6.18;3.40;;;;;;;5.82;68.71;99882.84;6151481;23;20056;-81
2023/11/19 05:51:38;;;;;;;5.35;2.45;;;;;;;6.10;67.65;99913.81;6150874;23;20005;-80
2023/11/19 05:54:08;;;;;;;5.15;2.95;;;;;;;5.81;67.75;99860.03;6151639;23;20002;-79
2023/11/19 05:56:34;;;;;;;3.97;2.90;;;;;;;5.89;68.09;99898.78;6151250;23;20006;-83
2023/11/19 05:59:14;;;;;;;4.50;2.60;;;;;;;6.00;67.79;99907.03;6125274;23;20033;-79
2023/11/19 06:01:41;;;;;;;4.30;2.35;;;;;;;6.03;67.44;99905.84;6125156;23;20068;-79
2023/11/19 06:04:07;;;;;;;3.53;2.25;;;;;;;5.88;66.80;99871.47;6151186;23;20002;-80
2023/11/19 06:06:33;;;;;;;4.43;2.20;;;;;;;5.96;66.80;99871.34;6151705;23;20042;-79
2023/11/19 06:08:58;;;;;;;4.32;2.55;;;;;;;6.01;67.17;99898.09;6151472;23;20006;-79
2023/11/19 06:11:26;;;;;;;5.00;2.72;;;;;;;5.99;67.27;99889.53;6151456;23;20068;-80
2023/11/19 06:13:52;;;;;;;4.82;2.33;;;;;;;6.00;67.27;99922.91;6125631;23;20439;-79
2023/11/19 06:16:18;;;;;;;4.43;2.60;;;;;;;5.83;67.31;99903.00;6151221;23;20002;-80
2023/11/19 06:18:44;;;;;;;6.05;2.40;;;;;;;5.99;67.57;99909.88;6150581;23;20005;-78
2023/11/19 06:21:10;;;;;;;4.05;2.35;;;;;;;5.98;66.71;99893.16;6124629;23;20005;-79
2023/11/19 06:23:35;;;;;;;5.38;2.63;;;;;;;6.12;67.39;99944.38;6150954;23;20431;-79
2023/11/19 06:26:01;;;;;;;3.83;2.53;;;;;;;6.07;66.66;99953.91;6124985;23;20012;-81
2023/11/19 06:28:26;;;;;;;5.32;2.50;;;;;;;5.84;68.20;99923.16;6125228;23;20037;-79
2023/11/19 06:30:52;;;;;;;4.13;2.30;;;;;;;5.95;67.17;99927.16;6150961;23;20439;-79
2023/11/19 06:33:17;;;;;;;4.78;2.85;;;;;;;5.93;67.56;99937.09;6151244;23;20388;-80
2023/11/19 06:35:42;;;;;;;5.47;2.85;;;;;;;6.05;66.58;99956.75;6125367;23;20014;-82
2023/11/19 06:38:08;;;;;;;6.32;3.13;;;;;;;6.01;66.54;99943.09;6150924;23;20010;-79
2023/11/19 06:40:37;;;;;;;7.13;4.18;;;;;;;5.93;67.30;99956.44;6150683;23;20163;-79
2023/11/19 06:43:08;;;;;;;9.35;7.05;;;;;;;5.63;67.84;99903.66;6124286;23;20096;-80
2023/11/19 06:45:33;;;;;;;7.20;4.85;;;;;;;5.89;67.92;99935.84;6125102;23;20010;-81
2023/11/19 06:48:03;;;;;;;6.25;3.13;;;;;;;5.74;67.57;99896.19;6125035;23;20012;-82
2023/11/19 06:50:28;;;;;;;8.55;3.33;;;;;;;6.04;67.03;99921.50;6121339;23;20014;-82
2023/11/19 06:52:54;;;;;;;3.55;2.38;;;;;;;6.20;66.42;99901.88;6122351;23;20009;-83
2023/11/19 06:55:19;;;;;;;5.03;2.95;;;;;;;6.19;65.81;99915.28;6121036;23;20017;-81
2023/11/19 06:57:44;;;;;;;3.65;2.53;;;;;;;6.21;66.24;99943.25;6121247;23;20010;-85
2023/11/19 07:00:11;;;;;;;4.07;2.50;;;;;;;6.25;65.83;99919.81;6121069;23;20093;-82
2023/11/19 07:02:36;;;;;;;4.32;2.63;;;;;;;6.44;65.08;99942.97;6121372;23;20065;-82
2023/11/19 07:05:04;;;;;;;5.47;3.00;;;;;;;6.56;64.65;99953.00;6121487;23;20010;-82
2023/11/19 07:07:30;;;;;;;4.50;2.55;;;;;;;6.77;63.39;99966.19;6123132;23;20006;-82
2023/11/19 07:09:56;;;;;;;4.05;2.38;;;;;;;6.86;62.72;99942.16;6121391;23;20006;-82
2023/11/19 07:12:21;;;;;;;5.88;2.85;;;;;;;6.90;63.38;99938.09;6122723;23;20016;-85
2023/11/19 07:14:47;;;;;;;5.93;3.10;;;;;;;7.16;62.28;99940.03;6120956;23;20010;-82
2023/11/19 07:17:12;;;;;;;4.65;2.50;;;;;;;7.53;60.90;99967.88;6121373;23;20006;-81
2023/11/19 07:19:38;;;;;;;7.45;2.70;;;;;;;7.37;60.13;99957.63;6121223;23;20065;-83
2023/11/19 07:22:04;;;;;;;4.82;2.70;;;;;;;7.52;60.56;99937.06;6121561;23;20066;-81
2023/11/19 07:24:29;;;;;;;4.97;2.35;;;;;;;7.73;59.52;99970.56;6121230;23;20008;-84
2023/11/19 07:26:55;;;;;;;5.10;2.75;;;;;;;7.81;59.65;99973.03;6121041;23;20010;-80
2023/11/19 07:29:21;;;;;;;5.47;2.60;;;;;;;7.85;58.73;99968.13;6120729;23;20013;-82
2023/11/19 07:31:48;;;;;;;4.97;2.70;;;;;;;8.00;58.22;100000.59;6122342;23;20013;-83
2023/11/19 07:34:14;;;;;;;3.83;2.53;;;;;;;8.11;57.83;99977.09;6119619;23;20010;-79
2023/11/19 07:36:39;;;;;;;3.63;2.40;;;;;;;8.36;57.90;100014.50;6118742;23;20069;-80
2023/11/19 07:39:05;;;;;;;5.38;2.30;;;;;;;8.55;56.20;100005.72;6120744;23;20009;-79
2023/11/19 07:41:31;;;;;;;4.55;2.83;;;;;;;8.62;55.64;100005.69;6119299;23;20010;-80
2023/11/19 07:43:56;;;;;;;4.57;2.33;;;;;;;8.67;55.37;100008.56;6120232;23;20076;-80
2023/11/19 07:46:22;;;;;;;4.85;2.20;;;;;;;8.72;54.06;100019.38;6120293;23;20020;-79
2023/11/19 07:48:47;;;;;;;3.33;2.20;;;;;;;8.79;54.29;100025.50;6120449;23;20025;-81
2023/11/19 07:51:14;;;;;;;3.47;2.08;;;;;;;8.72;54.74;100047.81;6148229;23;20024;-79
2023/11/19 07:53:40;;;;;;;4.15;1.90;;;;;;;8.57;54.17;100058.69;6150322;23;20012;-79
2023/11/19 07:56:06;;;;;;;4.40;2.30;;;;;;;8.58;53.88;100054.97;6123918;23;20005;-79
2023/11/19 07:58:32;;;;;;;4.30;2.30;;;;;;;8.28;54.68;100050.06;6124091;23;20006;-80
2023/11/19 08:00:57;;;;;;;5.22;2.30;;;;;;;8.40;53.99;100051.09;6124056;23;20491;-79
2023/11/19 08:03:23;;;;;;;4.00;1.95;;;;;;;8.43;53.52;100056.00;6150000;23;20006;-81
2023/11/19 08:05:48;;;;;;;3.03;1.98;;;;;;;8.41;53.02;100051.94;6150218;23;20020;-79
2023/11/19 08:08:14;;;;;;;6.05;2.55;;;;;;;8.52;53.91;100042.50;6123975;23;20109;-79
2023/11/19 08:10:40;;;;;;;6.15;2.40;;;;;;;8.79;53.26;100073.38;6149727;23;20010;-81
2023/11/19 08:13:07;;;;;;;4.93;2.70;;;;;;;8.63;53.11;100020.63;6123708;23;20009;-79
2023/11/19 08:15:32;;;;;;;6.53;2.25;;;;;;;8.74;52.99;100046.56;6149794;23;20713;-79
2023/11/19 08:17:58;;;;;;;4.22;2.53;;;;;;;8.85;53.50;100037.16;6150687;23;20467;-79
2023/11/19 08:20:23;;;;;;;4.45;2.45;;;;;;;8.81;52.41;100020.81;6150365;23;20009;-79
2023/11/19 08:22:49;;;;;;;3.42;2.10;;;;;;;8.69;52.87;100006.53;6123957;23;20749;-79
2023/11/19 08:25:14;;;;;;;5.53;2.58;;;;;;;8.98;52.48;100049.63;6150213;23;20005;-79
2023/11/19 08:27:40;;;;;;;2.85;1.98;;;;;;;8.90;52.62;100049.84;6150241;23;20084;-80
2023/11/19 08:30:06;;;;;;;5.05;1.90;;;;;;;9.17;52.60;100035.41;6123869;23;20017;-79
2023/11/19 08:32:32;;;;;;;4.22;2.30;;;;;;;9.41;51.16;100035.75;6149855;23;20025;-80
2023/11/19 08:34:57;;;;;;;4.18;2.25;;;;;;;9.53;51.16;100028.72;6123132;23;20002;-82
2023/11/19 08:37:23;;;;;;;2.70;1.85;;;;;;;9.42;51.00;100005.44;6124136;23;20005;-80
2023/11/19 08:39:49;;;;;;;6.57;3.90;;;;;;;9.98;50.30;100033.16;6123973;23;20016;-80
2023/11/19 08:42:15;;;;;;;3.58;2.22;;;;;;;10.02;49.70;100053.03;6123766;23;20009;-80
2023/11/19 08:44:43;;;;;;;3.95;2.40;;;;;;;9.91;49.10;100035.88;6123204;23;20447;-80
2023/11/19 08:47:10;;;;;;;3.88;2.20;;;;;;;9.65;48.59;100032.34;6123935;23;20029;-81
2023/11/19 08:49:36;;;;;;;3.67;2.03;;;;;;;9.75;49.50;100042.53;6123732;23;20107;-81
2023/11/19 08:52:01;;;;;;;3.40;2.38;;;;;;;9.77;49.51;100051.13;6123870;23;20388;-80
2023/11/19 08:54:27;;;;;;;6.63;3.65;;;;;;;10.06;48.79;100039.03;6124478;23;20014;-81
2023/11/19 08:56:52;;;;;;;3.92;2.10;;;;;;;10.41;48.11;100062.59;6123687;23;20020;-79
2023/11/19 08:59:19;;;;;;;6.20;2.30;;;;;;;10.58;47.27;100073.53;6123392;23;20005;-81
2023/11/19 09:01:44;;;;;;;3.67;2.28;;;;;;;9.79;48.11;100037.59;6124131;23;20084;-80
2023/11/19 09:04:10;;;;;;;4.07;2.33;;;;;;;10.02;47.92;100059.16;6149979;23;20032;-81
2023/11/19 09:06:36;;;;;;;4.53;2.42;;;;;;;10.49;47.35;100071.38;6149647;23;20010;-81
2023/11/19 09:09:02;;;;;;;3.15;1.88;;;;;;;10.39;47.00;100054.00;6124143;23;20010;-80
2023/11/19 09:11:29;;;;;;;3.80;2.15;;;;;;;10.50;46.66;100067.66;6122710;23;20059;-80
2023/11/19 09:13:54;;;;;;;3.75;1.90;;;;;;;10.30;46.70;100054.47;6149221;23;20013;-80
2023/11/19 09:16:20;;;;;;;4.07;2.25;;;;;;;10.39;47.44;100059.31;6148610;23;20136;-80
2023/11/19 09:18:45;;;;;;;6.05;1.98;;;;;;;10.58;46.10;100059.38;6123071;23;20008;-79
2023/11/19 09:21:11;;;;;;;4.78;2.10;;;;;;;10.52;46.50;100057.59;6149804;23;20080;-80
2023/11/19 09:23:39;;;;;;;3.67;1.95;;;;;;;10.65;46.82;100052.16;6123132;23;20013;-80
2023/11/19 09:26:09;;;;;;;2.65;1.60;;;;;;;10.35;45.56;100050.13;6150999;23;20001;-80
2023/11/19 09:28:35;;;;;;;3.15;2.13;;;;;;;10.34;45.99;100043.19;6151627;23;20060;-81
2023/11/19 09:31:04;;;;;;;3.55;2.15;;;;;;;10.20;45.54;100036.28;6125010;23;20014;-80
2023/11/19 09:33:29;;;;;;;4.65;2.03;;;;;;;10.23;46.45;100039.31;6151617;23;20064;-83
2023/11/19 09:35:55;;;;;;;3.45;1.90;;;;;;;10.57;45.94;100037.22;6125974;23;20005;-82
2023/11/19 09:38:20;;;;;;;4.60;2.08;;;;;;;11.01;44.83;100037.19;6151734;23;20147;-82
2023/11/19 09:40:47;;;;;;;3.65;2.20;;;;;;;11.14;45.42;100039.72;6126313;23;20420;-81
2023/11/19 09:43:14;;;;;;;4.28;2.50;;;;;;;10.57;46.20;100034.56;6125131;23;20044;-82
2023/11/19 09:45:50;;;;;;;5.03;2.35;;;;;;;10.84;46.78;100050.31;6125639;23;20108;-81
2023/11/19 09:48:19;;;;;;;5.30;2.80;;;;;;;10.36;46.70;100013.63;6151563;23;20410;-82
2023/11/19 09:50:49;;;;;;;4.43;2.85;;;;;;;10.92;46.25;100054.53;6150517;23;20377;-81
2023/11/19 09:53:15;;;;;;;5.22;2.80;;;;;;;10.59;45.35;100047.69;6125041;23;20005;-80
2023/11/19 09:55:41;;;;;;;6.10;2.47;;;;;;;10.98;44.84;100077.69;6150832;23;20064;-79
2023/11/19 09:58:07;;;;;;;4.60;2.45;;;;;;;11.04;44.52;100060.78;6125535;23;20013;-80
2023/11/19 10:00:34;;;;;;;3.38;2.13;;;;;;;10.89;44.62;100046.97;6124986;23;20013;-80
2023/11/19 10:03:02;;;;;;;9.90;2.80;;;;;;;10.69;44.64;100047.19;6124436;23;20859;-79
2023/11/19 10:05:27;;;;;;;4.63;2.22;;;;;;;11.04;45.08;100076.78;6150533;23;20009;-79
2023/11/19 10:07:55;;;;;;;11.43;4.45;;;;;;;10.94;44.71;100071.16;6123963;23;20064;-79
2023/11/19 10:10:20;;;;;;;4.43;2.88;;;;;;;11.56;44.55;100071.03;6124036;23;20096;-79
2023/11/19 10:12:49;;;;;;;3.90;2.42;;;;;;;11.14;44.44;100055.75;6150374;23;20060;-79
2023/11/19 10:15:21;;;;;;;4.82;2.90;;;;;;;11.06;44.29;100056.03;6150334;23;20005;-79
2023/11/19 10:17:46;;;;;;;6.32;2.65;;;;;;;11.55;44.44;100072.91;6124773;23;20012;-79
2023/11/19 10:20:12;;;;;;;5.47;2.47;;;;;;;11.24;43.32;100072.06;6150715;23;20009;-81
2023/11/19 10:22:37;;;;;;;8.13;4.53;;;;;;;11.41;42.73;100066.91;6124385;23;20101;-80
2023/11/19 10:25:04;;;;;;;6.53;2.75;;;;;;;11.63;44.73;100058.44;6150049;23;20031;-78
2023/11/19 10:27:34;;;;;;;7.13;4.07;;;;;;;11.75;41.46;100040.59;6149971;23;20001;-80
2023/11/19 10:30:00;;;;;;;4.93;2.63;;;;;;;11.63;41.77;100059.25;6150458;23;20008;-80
2023/11/19 10:32:25;;;;;;;7.65;3.97;;;;;;;11.55;42.18;100067.56;6123586;23;20005;-80
2023/11/19 10:34:51;;;;;;;3.22;1.88;;;;;;;11.63;41.21;100059.25;6149487;23;20092;-81
2023/11/19 10:37:31;;;;;;;3.55;2.15;;;;;;;11.73;41.84;100036.50;6123168;23;20040;-79
2023/11/19 10:39:57;;;;;;;3.83;2.30;;;;;;;11.85;41.96;100072.13;6149710;23;20005;-81
2023/11/19 10:42:23;;;;;;;4.57;2.20;;;;;;;11.92;41.50;100051.47;6123727;23;20014;-79
2023/11/19 10:44:49;;;;;;;3.83;2.10;;;;;;;11.93;41.00;100044.28;6149371;23;20064;-80
2023/11/19 10:47:18;;;;;;;4.90;2.95;;;;;;;12.08;41.33;100049.22;6149384;23;20007;-84
2023/11/19 10:49:45;;;;;;;3.17;1.98;;;;;;;11.76;41.28;100049.41;6124073;23;20602;-79
2023/11/19 10:52:14;;;;;;;4.25;2.22;;;;;;;11.76;41.00;100038.72;6150596;23;20517;-79
2023/11/19 10:54:44;;;;;;;3.47;1.88;;;;;;;11.66;41.29;100061.44;6150707;23;20456;-81
2023/11/19 10:57:12;;;;;;;3.65;2.20;;;;;;;11.36;41.73;100020.56;6124622;23;20009;-81
2023/11/19 10:59:39;;;;;;;4.47;2.30;;;;;;;11.64;41.22;100039.50;6123913;23;20006;-79
2023/11/19 11:02:09;;;;;;;2.90;1.98;;;;;;;11.69;41.39;100029.97;6149763;23;20587;-79
2023/11/19 11:04:40;;;;;;;4.40;2.10;;;;;;;11.60;41.74;100024.16;6149936;23;20005;-79
2023/11/19 11:07:07;;;;;;;6.63;2.42;;;;;;;11.83;41.03;100020.75;6123937;23;20013;-82
2023/11/19 11:09:33;;;;;;;5.35;1.92;;;;;;;11.73;40.22;100012.47;6149571;23;20008;-79
2023/11/19 11:11:59;;;;;;;3.22;1.98;;;;;;;11.93;40.05;100030.91;6149550;23;20001;-79
2023/11/19 11:14:26;;;;;;;3.38;1.90;;;;;;;12.08;40.06;100036.66;6123612;23;20009;-79
2023/11/19 11:16:53;;;;;;;4.55;1.92;;;;;;;11.85;40.06;100026.69;6149579;23;20001;-78
2023/11/19 11:19:19;;;;;;;4.82;2.35;;;;;;;11.78;40.85;100032.13;6149741;23;20413;-79
2023/11/19 11:21:50;;;;;;;3.88;2.25;;;;;;;11.69;40.61;100030.81;6150434;23;20008;-80
2023/11/19 11:24:31;;;;;;;6.30;2.40;;;;;;;11.81;41.08;100049.53;6148765;23;20029;-79
2023/11/19 11:27:17;;;;;;;6.47;3.55;;;;;;;12.39;40.72;100040.06;6151013;23;20080;-80
2023/11/19 11:30:10;;;;;;;4.53;2.47;;;;;;;12.17;39.93;100042.47;6123332;23;20410;-79
2023/11/19 11:32:59;;;;;;;7.30;3.13;;;;;;;12.13;40.15;100027.94;6149801;23;19997;-79